Main page
METAR-TAF:

METAR-TAF

Airports :

Resolute, Nunavut, Canada

Resolute Bay Airport

latitude: 74-43N, longitude: 094-59W, elevation: 67 m

Current weather observation

The report was made 16 minutes ago, at 14:00 UTC
Wind 9 kt from the North/Northwest
Temperature -34°C
Humidity 67%
Pressure 1022 hPa
Visibility: 24.1 km
Clear sky
ice crystals

METAR: CYRB 211400Z 34009KT 15SM IC SKC M34/M38 A3018 RMK SLP237

Time: 08:16 (14:16 UTC)

Forecast

The report was made 2 hours and 38 minutes ago, at 11:38 UTC
Forecast valid from 21 at 12 UTC to 22 at 12 UTC
Wind 8 kt from the North/Northwest
Visibility: 10 km
Clear sky
ice crystals

TAF: CYRB 211138Z 2112/2212 34008KT P6SM IC SKC RMK NXT FCST BY 211800Z

Weather observations and forecasts of more than 4000 airports (METAR and TAF reports).

The available stations are represented by yellow and red dots on the map.

Hover mouse over dot to see the name of the station.

Then click to see weather observations and forecasts.

To change the map : click on the green buttons with a black cross to zoom in, on the green button with a dash to zoom out, or on the green arrows for adjacent maps.


METAR-TAF: